Time;durP1;ratioP1;P1;durP2;ratioP2;P2;SDS_P1;SDS_P2;PMS_P1;PMS_P2;Temp;Humidity;BMP_temperature;BMP_pressure;BME280_temperature;BME280_humidity;BME280_pressure;Samples;Min_cycle;Max_cycle;Signal;HPM_P1;HPM_P2
2023/09/15 00:01:11;;;;;;;3.83;2.50;;;;;;;13.40;100.00;149465.53;4988983;28;20894;-68
2023/09/15 00:03:38;;;;;;;3.97;2.50;;;;;;;13.39;100.00;149464.28;4989525;28;20654;-68
2023/09/15 00:06:04;;;;;;;5.00;3.10;;;;;;;13.40;100.00;149465.53;4986114;28;20679;-68
2023/09/15 00:08:31;;;;;;;5.07;2.90;;;;;;;13.35;100.00;149454.31;4988911;28;20308;-68
2023/09/15 00:10:57;;;;;;;4.27;2.40;;;;;;;13.32;100.00;149445.56;4988287;28;20593;-68
2023/09/15 00:13:26;;;;;;;4.17;2.33;;;;;;;13.23;100.00;149424.38;4988808;28;20226;-67
2023/09/15 00:15:58;;;;;;;3.37;2.40;;;;;;;13.19;100.00;149414.38;4987820;28;20677;-67
2023/09/15 00:18:25;;;;;;;3.77;2.70;;;;;;;13.21;100.00;149419.38;4990460;28;20222;-67
2023/09/15 00:20:57;;;;;;;4.43;2.83;;;;;;;13.14;100.00;149404.41;4987405;28;20243;-67
2023/09/15 00:23:23;;;;;;;4.70;2.67;;;;;;;13.10;100.00;149393.19;4988970;28;20709;-68
2023/09/15 00:26:15;;;;;;;4.00;2.70;;;;;;;12.99;100.00;149366.97;4988888;28;20245;-68
2023/09/15 00:28:44;;;;;;;4.27;2.60;;;;;;;12.96;100.00;149360.75;4990382;28;20591;-68
2023/09/15 00:31:11;;;;;;;3.90;2.80;;;;;;;12.92;100.00;149349.50;4987909;28;20226;-68
2023/09/15 00:33:37;;;;;;;4.03;2.83;;;;;;;12.86;100.00;149335.81;4997099;28;20217;-68
2023/09/15 00:36:06;;;;;;;5.40;2.53;;;;;;;12.81;100.00;149324.56;4986033;28;20582;-68
2023/09/15 00:38:34;;;;;;;5.80;3.20;;;;;;;12.78;100.00;149317.09;4976374;28;20259;-68
2023/09/15 00:41:01;;;;;;;3.83;2.83;;;;;;;12.77;100.00;149314.59;4983676;28;20229;-68
2023/09/15 00:43:28;;;;;;;5.73;2.90;;;;;;;12.73;100.00;149304.59;4990651;28;20235;-67
2023/09/15 00:45:58;;;;;;;4.73;2.87;;;;;;;12.69;100.00;149294.69;4992171;28;20229;-68
2023/09/15 00:48:26;;;;;;;5.63;2.80;;;;;;;12.64;100.00;149283.44;4987643;28;20227;-68
2023/09/15 00:50:57;;;;;;;4.53;2.80;;;;;;;12.62;100.00;149278.44;4986897;28;20718;-68
2023/09/15 00:53:25;;;;;;;9.70;2.70;;;;;;;12.59;100.00;149270.97;4994964;28;20702;-68
2023/09/15 00:55:57;;;;;;;4.50;2.87;;;;;;;12.58;100.00;149268.47;4973963;28;20225;-68
2023/09/15 00:58:24;;;;;;;5.17;2.63;;;;;;;12.52;100.00;149253.50;4986387;28;20284;-68
2023/09/15 01:01:18;;;;;;;6.13;3.20;;;;;;;12.47;100.00;149241.03;4985200;28;20232;-68
2023/09/15 01:03:47;;;;;;;5.90;3.17;;;;;;;12.45;100.00;149237.31;4987044;28;20706;-68
2023/09/15 01:06:15;;;;;;;3.23;2.60;;;;;;;12.43;100.00;149232.31;4986630;28;20225;-68
2023/09/15 01:08:42;;;;;;;6.87;3.10;;;;;;;12.38;100.00;149221.06;4986280;28;20308;-68
2023/09/15 01:11:10;;;;;;;5.47;3.17;;;;;;;12.36;100.00;149216.09;4974871;28;20278;-68
2023/09/15 01:13:37;;;;;;;4.63;3.03;;;;;;;12.35;100.00;149212.38;4987164;28;20209;-68
2023/09/15 01:16:08;;;;;;;4.20;3.10;;;;;;;12.35;100.00;149212.38;4983570;28;20225;-68
2023/09/15 01:18:45;;;;;;;6.17;3.13;;;;;;;12.30;100.00;149201.13;4986424;28;20230;-68
2023/09/15 01:21:47;;;;;;;5.83;3.37;;;;;;;12.36;100.00;149216.09;4982026;28;20236;-68
2023/09/15 01:24:46;;;;;;;5.90;3.07;;;;;;;12.32;100.00;149204.88;4977105;28;20278;-68
2023/09/15 01:27:48;;;;;;;3.57;2.87;;;;;;;12.27;100.00;149192.41;4998266;28;20228;-68
2023/09/15 01:30:16;;;;;;;4.93;2.90;;;;;;;12.34;100.00;149211.09;4984285;28;20666;-68
2023/09/15 01:32:44;;;;;;;4.07;3.23;;;;;;;12.38;100.00;149219.84;4987478;28;20239;-68
2023/09/15 01:35:10;;;;;;;5.20;3.17;;;;;;;12.42;100.00;149228.56;4984869;28;20578;-68
2023/09/15 01:37:37;;;;;;;6.13;3.50;;;;;;;12.40;100.00;149226.06;5001517;28;20321;-68
2023/09/15 01:40:05;;;;;;;4.67;3.30;;;;;;;12.37;100.00;149218.59;4992177;28;20248;-68
2023/09/15 01:42:32;;;;;;;5.63;3.10;;;;;;;12.36;100.00;149214.84;4977874;28;20214;-68
2023/09/15 01:44:59;;;;;;;5.80;3.90;;;;;;;12.39;100.00;149223.56;4984590;28;20242;-68
2023/09/15 01:47:27;;;;;;;5.53;3.27;;;;;;;12.41;100.00;149227.31;4987772;28;20228;-68
2023/09/15 01:49:55;;;;;;;6.33;3.20;;;;;;;12.39;100.00;149222.34;4973944;28;20217;-68
2023/09/15 01:52:23;;;;;;;5.90;3.10;;;;;;;12.33;100.00;149207.38;4975455;28;20238;-68
2023/09/15 01:54:51;;;;;;;5.80;3.30;;;;;;;12.29;100.00;149198.63;4970824;28;20222;-68
2023/09/15 01:57:18;;;;;;;4.47;3.13;;;;;;;12.30;100.00;149201.13;4986279;28;20273;-68
2023/09/15 01:59:45;;;;;;;5.53;3.17;;;;;;;12.29;100.00;149198.63;4986193;28;20296;-68
2023/09/15 02:02:12;;;;;;;4.97;3.20;;;;;;;12.27;100.00;149192.41;4985894;28;20625;-68
2023/09/15 02:04:40;;;;;;;5.53;3.17;;;;;;;12.19;100.00;149174.97;4990692;28;20226;-68
2023/09/15 02:07:06;;;;;;;4.10;3.10;;;;;;;12.17;100.00;149169.97;4986002;28;20226;-68
2023/09/15 02:09:33;;;;;;;6.07;3.23;;;;;;;12.10;100.00;149152.50;4986613;28;20679;-68
2023/09/15 02:12:00;;;;;;;5.63;3.10;;;;;;;12.05;100.00;149141.31;4983464;28;20480;-68
2023/09/15 02:14:26;;;;;;;5.43;3.20;;;;;;;12.04;100.00;149137.56;4986193;28;20227;-68
2023/09/15 02:16:53;;;;;;;4.17;3.27;;;;;;;12.01;100.00;149130.06;4984622;28;20236;-68
2023/09/15 02:19:20;;;;;;;7.47;3.57;;;;;;;12.04;100.00;149137.56;4986226;28;20310;-68
2023/09/15 02:21:48;;;;;;;6.27;3.67;;;;;;;12.00;100.00;149127.56;4985071;28;20679;-68
2023/09/15 02:24:15;;;;;;;6.77;3.27;;;;;;;11.98;100.00;149122.53;4983322;28;20225;-68
2023/09/15 02:26:41;;;;;;;4.63;3.30;;;;;;;11.96;100.00;149118.81;4991120;28;20229;-68
2023/09/15 02:29:08;;;;;;;6.80;3.50;;;;;;;11.91;100.00;149106.34;4987333;28;20569;-68
2023/09/15 02:31:35;;;;;;;5.43;3.63;;;;;;;11.90;100.00;149105.09;4987630;28;20234;-68
2023/09/15 02:34:02;;;;;;;6.43;3.60;;;;;;;11.86;100.00;149093.91;4980940;28;20231;-68
2023/09/15 02:36:28;;;;;;;5.23;3.33;;;;;;;11.79;100.00;149078.94;4986593;28;20312;-68
2023/09/15 02:38:56;;;;;;;5.87;3.40;;;;;;;11.77;100.00;149072.69;4972292;28;20232;-68
2023/09/15 02:41:23;;;;;;;6.47;3.53;;;;;;;11.81;100.00;149083.91;4975152;28;20241;-68
2023/09/15 02:43:50;;;;;;;5.97;3.50;;;;;;;11.76;100.00;149071.47;4981226;28;20232;-68
2023/09/15 02:46:16;;;;;;;7.23;4.23;;;;;;;11.75;100.00;149067.69;4990400;28;20284;-68
2023/09/15 02:48:43;;;;;;;5.40;3.70;;;;;;;11.72;100.00;149060.22;4974635;28;20757;-68
2023/09/15 02:51:10;;;;;;;7.37;3.37;;;;;;;11.74;100.00;149066.47;4983202;28;20232;-68
2023/09/15 02:53:37;;;;;;;4.63;3.73;;;;;;;11.70;100.00;149056.50;4976226;28;20266;-68
2023/09/15 02:56:05;;;;;;;4.40;3.63;;;;;;;11.69;100.00;149054.00;4983131;28;20243;-68
2023/09/15 02:58:35;;;;;;;7.13;3.50;;;;;;;11.70;100.00;149055.22;4985869;28;20231;-68
2023/09/15 03:04:00;;;;;;;6.40;3.70;;;;;;;11.64;100.00;149041.53;5574550;23;20320;-66
2023/09/15 03:06:27;;;;;;;5.03;3.50;;;;;;;11.65;100.00;149045.31;4918615;29;20232;-66
2023/09/15 03:08:54;;;;;;;5.37;3.53;;;;;;;11.72;100.00;149060.22;4926900;28;20234;-66
2023/09/15 03:11:22;;;;;;;4.93;3.50;;;;;;;11.71;100.00;149057.72;4925652;29;20239;-66
2023/09/15 03:13:56;;;;;;;5.10;3.80;;;;;;;11.70;100.00;149056.50;4921072;28;20882;-66
2023/09/15 03:16:23;;;;;;;7.57;3.63;;;;;;;11.66;100.00;149047.75;4922578;29;20285;-66
2023/09/15 03:18:50;;;;;;;6.10;3.80;;;;;;;11.61;100.00;149034.06;4922005;28;20237;-66
2023/09/15 03:21:19;;;;;;;5.77;3.57;;;;;;;11.59;100.00;149030.34;4924463;29;20255;-67
2023/09/15 03:23:49;;;;;;;8.03;3.73;;;;;;;11.57;100.00;149025.34;4942621;28;20714;-67
2023/09/15 03:26:16;;;;;;;5.80;3.57;;;;;;;11.55;100.00;149020.38;4920380;29;20311;-67
2023/09/15 03:28:48;;;;;;;4.80;3.90;;;;;;;11.61;100.00;149034.06;4923855;28;20222;-66
2023/09/15 03:31:15;;;;;;;6.70;4.27;;;;;;;11.57;100.00;149025.34;5130846;23;20245;-66
2023/09/15 03:33:41;;;;;;;4.83;3.47;;;;;;;11.50;100.00;149009.13;4940355;28;20226;-66
2023/09/15 03:36:12;;;;;;;5.83;4.00;;;;;;;11.60;100.00;149032.84;4922548;28;20241;-66
2023/09/15 03:38:38;;;;;;;8.07;4.37;;;;;;;11.54;100.00;149016.63;4925515;29;20596;-67
2023/09/15 03:41:05;;;;;;;5.27;3.40;;;;;;;11.55;100.00;149020.38;4918637;28;20321;-67
2023/09/15 03:43:34;;;;;;;7.40;4.40;;;;;;;11.55;100.00;149019.09;4909758;29;20577;-67
2023/09/15 03:46:02;;;;;;;5.97;3.90;;;;;;;11.55;100.00;149020.38;4905676;28;20236;-67
2023/09/15 03:48:30;;;;;;;5.17;3.70;;;;;;;11.51;100.00;149011.63;4906297;28;20230;-67
2023/09/15 03:50:58;;;;;;;8.07;4.60;;;;;;;11.51;100.00;149010.41;4907195;28;20231;-67
2023/09/15 03:53:25;;;;;;;8.43;4.10;;;;;;;11.58;100.00;149026.59;4927096;28;20240;-67
2023/09/15 03:55:57;;;;;;;5.20;3.67;;;;;;;11.56;100.00;149021.59;4911156;28;20642;-66
2023/09/15 03:58:24;;;;;;;6.73;3.97;;;;;;;11.54;100.00;149016.63;4913062;28;20234;-66
2023/09/15 04:01:21;;;;;;;6.47;3.90;;;;;;;11.55;100.00;149019.09;4910504;28;20237;-67
2023/09/15 04:03:47;;;;;;;6.60;3.93;;;;;;;11.51;100.00;149010.41;4913534;28;20847;-66
2023/09/15 04:06:16;;;;;;;6.47;4.03;;;;;;;11.55;100.00;149020.38;4924438;28;20244;-67
2023/09/15 04:08:43;;;;;;;5.17;4.20;;;;;;;11.48;100.00;149004.16;4917181;28;20621;-67
2023/09/15 04:11:09;;;;;;;7.63;4.53;;;;;;;11.49;100.00;149005.41;4906743;28;20229;-67
2023/09/15 04:13:36;;;;;;;5.30;4.53;;;;;;;11.49;100.00;149005.41;4916182;28;20243;-66
2023/09/15 04:16:04;;;;;;;5.97;4.50;;;;;;;11.49;100.00;149006.63;4915296;28;20238;-66
2023/09/15 04:18:32;;;;;;;5.83;3.73;;;;;;;11.49;100.00;149006.63;4912016;28;20229;-67
2023/09/15 04:20:59;;;;;;;5.03;4.20;;;;;;;11.43;100.00;148991.69;4905319;28;20260;-66
2023/09/15 04:23:26;;;;;;;5.17;3.63;;;;;;;11.45;100.00;148996.66;4910069;28;20246;-67
2023/09/15 04:25:57;;;;;;;5.60;3.87;;;;;;;11.39;100.00;148980.50;4910499;28;20231;-66
2023/09/15 04:28:24;;;;;;;4.97;4.03;;;;;;;11.37;100.00;148978.00;4910355;28;20712;-66
2023/09/15 04:30:57;;;;;;;6.30;3.93;;;;;;;11.33;100.00;148968.03;4902751;28;20230;-66
2023/09/15 04:33:24;;;;;;;6.53;4.13;;;;;;;11.27;100.00;148953.06;4914832;29;20314;-66
2023/09/15 04:35:58;;;;;;;5.20;4.00;;;;;;;11.28;100.00;148954.31;4914437;28;20242;-66
2023/09/15 04:38:25;;;;;;;6.57;4.20;;;;;;;11.29;100.00;148958.06;4916016;29;20263;-66
2023/09/15 04:40:58;;;;;;;8.23;4.40;;;;;;;11.26;100.00;148949.31;4923737;28;20231;-66
2023/09/15 04:43:25;;;;;;;6.00;4.37;;;;;;;11.22;100.00;148941.84;4911921;28;20248;-66
2023/09/15 04:45:57;;;;;;;5.70;4.23;;;;;;;11.19;100.00;148933.13;4924174;28;20234;-67
2023/09/15 04:48:24;;;;;;;6.07;4.03;;;;;;;11.23;100.00;148943.09;4917251;28;20234;-67
2023/09/15 04:50:58;;;;;;;8.23;4.07;;;;;;;11.19;100.00;148934.38;4908334;28;20235;-66
2023/09/15 04:53:25;;;;;;;8.13;4.10;;;;;;;11.17;100.00;148928.16;4915434;29;20257;-67
2023/09/15 04:55:57;;;;;;;8.10;5.00;;;;;;;11.14;100.00;148920.69;4908382;28;20711;-67
2023/09/15 04:58:24;;;;;;;7.33;4.57;;;;;;;11.06;100.00;148902.00;4913776;28;20308;-67
2023/09/15 05:01:00;;;;;;;6.63;4.10;;;;;;;11.05;100.00;148899.53;4907717;28;20235;-66
2023/09/15 05:03:27;;;;;;;7.80;4.60;;;;;;;10.98;100.00;148883.31;4912198;28;20331;-66
2023/09/15 05:05:59;;;;;;;6.70;4.63;;;;;;;10.95;100.00;148874.59;4924723;28;20263;-67
2023/09/15 05:08:26;;;;;;;7.43;4.80;;;;;;;10.98;100.00;148882.06;4915423;29;20679;-67
2023/09/15 05:10:57;;;;;;;7.43;4.73;;;;;;;10.98;100.00;148882.06;4913257;28;20253;-67
2023/09/15 05:13:23;;;;;;;7.00;3.90;;;;;;;10.97;100.00;148879.59;4915476;28;20227;-66
2023/09/15 05:16:16;;;;;;;7.97;4.40;;;;;;;10.99;100.00;148884.56;4912317;28;20685;-66
2023/09/15 05:18:43;;;;;;;8.13;4.70;;;;;;;10.95;100.00;148874.59;4915330;29;20251;-67
2023/09/15 05:21:11;;;;;;;6.53;4.30;;;;;;;10.96;100.00;148878.31;4910349;28;20300;-67
2023/09/15 05:23:38;;;;;;;6.07;4.47;;;;;;;11.01;100.00;148890.78;4899688;29;20242;-67
2023/09/15 05:26:05;;;;;;;10.93;4.27;;;;;;;10.99;100.00;148885.78;4912235;28;20843;-67
2023/09/15 05:28:31;;;;;;;9.50;4.27;;;;;;;11.06;100.00;148902.00;4903332;29;20232;-67
2023/09/15 05:30:59;;;;;;;7.57;4.00;;;;;;;11.06;100.00;148903.22;4911538;28;20709;-67
2023/09/15 05:33:26;;;;;;;8.97;4.33;;;;;;;11.08;100.00;148908.22;4906032;29;20253;-67
2023/09/15 05:35:58;;;;;;;6.73;4.67;;;;;;;11.12;100.00;148915.69;4912486;28;20235;-67
2023/09/15 05:38:27;;;;;;;8.70;4.57;;;;;;;11.21;100.00;148939.34;4913479;29;20238;-67
2023/09/15 05:40:57;;;;;;;8.90;4.70;;;;;;;11.21;100.00;148939.34;4909554;28;20322;-67
2023/09/15 05:43:24;;;;;;;8.17;4.33;;;;;;;11.28;100.00;148955.56;4914586;28;20344;-67
2023/09/15 05:45:57;;;;;;;6.00;4.30;;;;;;;11.33;100.00;148966.75;4915007;28;20720;-67
2023/09/15 05:48:24;;;;;;;6.27;4.10;;;;;;;11.37;100.00;148976.72;4913516;28;20235;-67
2023/09/15 05:50:57;;;;;;;5.60;4.10;;;;;;;11.40;100.00;148984.22;4903639;28;20681;-67
2023/09/15 05:53:24;;;;;;;5.43;4.33;;;;;;;11.43;100.00;148990.47;4910746;28;20229;-67
2023/09/15 05:56:18;;;;;;;7.90;4.47;;;;;;;11.48;100.00;149002.94;4914834;28;20238;-67
2023/09/15 05:58:44;;;;;;;7.73;5.10;;;;;;;11.50;100.00;149009.13;4915875;28;20260;-67
2023/09/15 06:01:11;;;;;;;6.00;4.40;;;;;;;11.56;100.00;149022.88;4904008;28;20245;-67
2023/09/15 06:03:38;;;;;;;7.40;4.87;;;;;;;11.56;100.00;149022.88;4911314;28;20282;-67
2023/09/15 06:06:05;;;;;;;9.90;4.90;;;;;;;11.64;100.00;149041.53;4905888;28;20236;-67
2023/09/15 06:08:31;;;;;;;6.90;4.90;;;;;;;11.64;100.00;149041.53;4917772;28;20258;-67
2023/09/15 06:11:00;;;;;;;7.10;4.63;;;;;;;11.70;100.00;149055.22;4909701;28;20222;-67
2023/09/15 06:13:28;;;;;;;8.27;5.30;;;;;;;11.75;100.00;149068.97;4915326;28;20220;-67
2023/09/15 06:15:57;;;;;;;6.67;4.43;;;;;;;11.79;100.00;149077.66;4897631;28;20351;-67
2023/09/15 06:18:24;;;;;;;7.53;4.93;;;;;;;11.84;100.00;149088.91;4911335;28;20236;-67
2023/09/15 06:21:15;;;;;;;8.37;4.60;;;;;;;11.86;100.00;149095.13;4909384;28;20309;-67
2023/09/15 06:23:42;;;;;;;6.90;4.37;;;;;;;11.94;100.00;149113.84;4909104;28;20249;-67
2023/09/15 06:26:09;;;;;;;5.83;4.57;;;;;;;11.94;100.00;149113.84;4906765;28;20736;-67
2023/09/15 06:28:37;;;;;;;8.20;4.10;;;;;;;12.04;100.00;149137.56;4910743;28;20326;-67
2023/09/15 06:31:04;;;;;;;10.83;5.50;;;;;;;12.08;100.00;149147.53;4906615;28;20239;-67
2023/09/15 06:33:30;;;;;;;12.17;5.40;;;;;;;12.14;100.00;149162.50;4916314;28;20251;-67
2023/09/15 06:35:57;;;;;;;8.40;5.10;;;;;;;12.21;100.00;149179.94;4906290;28;20292;-67
2023/09/15 06:38:24;;;;;;;7.93;5.83;;;;;;;12.23;100.00;149184.94;4913112;28;20241;-66
2023/09/15 06:40:57;;;;;;;8.97;5.07;;;;;;;12.33;100.00;149207.38;4893037;28;20232;-67
2023/09/15 06:43:23;;;;;;;19.70;6.93;;;;;;;12.39;100.00;149222.34;4910759;28;20915;-67
2023/09/15 06:46:18;;;;;;;25.80;9.37;;;;;;;12.49;100.00;149246.00;4907958;28;20634;-67
2023/09/15 06:48:45;;;;;;;12.63;6.40;;;;;;;12.54;100.00;149259.75;4907399;28;20318;-67
2023/09/15 06:51:12;;;;;;;16.07;7.23;;;;;;;12.58;100.00;149268.47;4905578;28;20248;-67
2023/09/15 06:53:39;;;;;;;9.90;5.57;;;;;;;12.66;100.00;149288.41;4921515;28;20242;-67
2023/09/15 06:56:05;;;;;;;26.13;8.50;;;;;;;12.68;100.00;149292.19;4893899;28;20734;-68
2023/09/15 06:58:32;;;;;;;18.03;6.70;;;;;;;12.75;100.00;149308.38;4902101;28;20236;-67
2023/09/15 07:00:58;;;;;;;15.63;5.80;;;;;;;12.83;100.00;149329.56;4906495;28;22189;-67
2023/09/15 07:03:27;;;;;;;10.30;5.53;;;;;;;12.89;100.00;149342.03;4910531;29;20257;-67
2023/09/15 07:05:57;;;;;;;9.23;5.00;;;;;;;12.93;100.00;149353.28;4902958;28;20231;-67
2023/09/15 07:08:24;;;;;;;10.30;6.07;;;;;;;12.99;100.00;149368.25;4907801;28;20239;-67
2023/09/15 07:11:15;;;;;;;15.10;6.03;;;;;;;13.08;100.00;149389.44;4910595;28;20250;-67
2023/09/15 07:13:42;;;;;;;14.37;6.27;;;;;;;13.17;100.00;149409.41;4908177;28;20460;-67
2023/09/15 07:16:09;;;;;;;9.30;6.20;;;;;;;13.20;100.00;149418.16;4902038;28;23938;-68
2023/09/15 07:18:37;;;;;;;12.73;6.60;;;;;;;13.29;100.00;149439.34;4905324;28;20251;-67
2023/09/15 07:21:04;;;;;;;10.83;6.30;;;;;;;13.34;100.00;149451.81;4904949;28;20691;-69
2023/09/15 07:23:30;;;;;;;10.77;5.73;;;;;;;13.40;100.00;149466.78;4910665;28;20244;-68
2023/09/15 07:25:59;;;;;;;13.10;6.43;;;;;;;13.58;100.00;149510.50;4905537;28;20238;-68
2023/09/15 07:28:25;;;;;;;9.17;6.63;;;;;;;13.59;100.00;149511.75;4908661;28;20354;-68
2023/09/15 07:31:02;;;;;;;9.20;5.90;;;;;;;13.70;100.00;149537.94;4907072;28;20652;-66
2023/09/15 07:33:29;;;;;;;8.57;5.53;;;;;;;13.81;100.00;149564.13;4912572;28;20233;-66
2023/09/15 07:36:00;;;;;;;10.67;6.10;;;;;;;13.84;100.00;149572.91;4897606;28;20722;-68
2023/09/15 07:38:27;;;;;;;11.87;6.10;;;;;;;13.96;100.00;149600.38;4912909;28;20226;-66
2023/09/15 07:40:58;;;;;;;8.53;5.50;;;;;;;14.08;100.00;149630.31;4907414;28;20227;-67
2023/09/15 07:43:25;;;;;;;8.77;5.67;;;;;;;14.16;100.00;149649.03;4913718;28;20327;-67
2023/09/15 07:45:57;;;;;;;15.37;6.63;;;;;;;14.28;100.00;149679.00;4902040;28;20220;-68
2023/09/15 07:48:24;;;;;;;11.27;6.83;;;;;;;14.39;100.00;149703.97;4910009;28;21114;-68
2023/09/15 07:51:16;;;;;;;11.10;6.00;;;;;;;14.48;100.00;149726.44;4905946;28;20243;-68
2023/09/15 07:53:43;;;;;;;10.23;6.03;;;;;;;14.64;100.00;149765.13;4911508;28;20259;-66
2023/09/15 07:56:10;;;;;;;11.47;6.47;;;;;;;14.67;100.00;149771.38;4906914;28;20233;-67
2023/09/15 07:58:36;;;;;;;10.87;6.00;;;;;;;14.82;100.00;149807.63;4916580;28;20234;-67
2023/09/15 08:01:05;;;;;;;9.27;5.60;;;;;;;14.93;100.00;149835.09;4908136;28;20251;-67
2023/09/15 08:03:32;;;;;;;8.90;5.70;;;;;;;15.02;100.00;149856.31;4908472;28;20246;-68
2023/09/15 08:05:59;;;;;;;9.17;6.13;;;;;;;15.07;100.00;149867.59;4909012;28;20244;-62
2023/09/15 08:08:27;;;;;;;9.70;5.87;;;;;;;15.07;100.00;149868.81;4909718;28;20233;-64
2023/09/15 08:10:57;;;;;;;12.50;5.67;;;;;;;15.17;100.00;149893.78;4910864;28;20225;-64
2023/09/15 08:13:24;;;;;;;9.43;5.57;;;;;;;15.24;100.00;149908.78;4912201;28;20241;-64
2023/09/15 08:16:15;;;;;;;14.43;6.30;;;;;;;15.39;100.00;149946.25;4907484;28;20246;-65
2023/09/15 08:18:42;;;;;;;9.20;5.77;;;;;;;15.54;100.00;149982.47;4913145;28;20242;-64
2023/09/15 08:21:09;;;;;;;9.03;5.80;;;;;;;15.63;100.00;150004.97;4910209;28;21332;-65
2023/09/15 08:23:37;;;;;;;8.63;5.73;;;;;;;15.68;100.00;150016.22;4909160;28;20234;-64
2023/09/15 08:26:03;;;;;;;7.50;5.83;;;;;;;15.78;99.62;150041.22;4907695;28;20252;-65
2023/09/15 08:28:30;;;;;;;8.13;5.10;;;;;;;15.81;98.98;150046.22;4907396;29;20238;-64
2023/09/15 08:30:57;;;;;;;10.30;6.50;;;;;;;15.86;98.87;150059.94;4894187;28;20587;-65
2023/09/15 08:33:24;;;;;;;9.57;6.00;;;;;;;15.92;99.26;150075.00;4914657;28;20237;-64
2023/09/15 08:36:15;;;;;;;8.53;5.77;;;;;;;15.98;99.80;150087.50;4911633;28;20325;-65
2023/09/15 08:38:43;;;;;;;11.63;6.37;;;;;;;16.03;99.36;150100.00;4912369;28;20756;-65
2023/09/15 08:41:17;;;;;;;9.87;6.00;;;;;;;16.19;98.69;150138.72;4908873;28;20253;-64
2023/09/15 08:43:45;;;;;;;9.73;5.93;;;;;;;16.29;96.73;150162.50;4913984;28;20242;-64
2023/09/15 08:46:13;;;;;;;13.63;5.77;;;;;;;16.13;96.87;150123.72;4919021;28;20251;-64
2023/09/15 08:48:41;;;;;;;9.60;5.43;;;;;;;16.30;97.53;150165.00;4911766;28;20250;-64
2023/09/15 08:51:08;;;;;;;14.00;6.30;;;;;;;16.35;95.89;150178.72;4904560;28;20247;-64
2023/09/15 08:53:35;;;;;;;9.53;5.70;;;;;;;16.52;95.44;150218.72;4909968;28;20247;-65
2023/09/15 08:56:04;;;;;;;10.17;5.73;;;;;;;16.42;94.47;150193.72;4910982;28;20232;-64
2023/09/15 08:58:31;;;;;;;12.77;6.57;;;;;;;16.61;96.31;150239.94;4912403;29;20266;-64
2023/09/15 09:00:59;;;;;;;11.70;5.73;;;;;;;16.66;95.13;150252.47;4905133;28;20238;-64
2023/09/15 09:03:26;;;;;;;12.37;5.93;;;;;;;16.79;93.75;150283.75;4908269;29;20248;-64
2023/09/15 09:05:58;;;;;;;8.87;5.53;;;;;;;16.87;93.46;150302.47;4922677;28;20227;-64
2023/09/15 09:08:25;;;;;;;8.90;5.33;;;;;;;16.99;91.95;150332.53;4914712;28;20299;-64
2023/09/15 09:10:57;;;;;;;8.73;4.80;;;;;;;17.04;92.70;150343.75;4905676;28;20240;-64
2023/09/15 09:13:26;;;;;;;9.70;5.17;;;;;;;17.18;92.78;150378.78;4907995;28;20219;-64
2023/09/15 09:15:57;;;;;;;7.23;4.70;;;;;;;17.30;91.12;150406.31;4912114;28;20226;-64
2023/09/15 09:18:24;;;;;;;7.87;4.80;;;;;;;17.25;90.61;150395.06;4912587;28;20712;-64
2023/09/15 09:21:16;;;;;;;7.77;4.27;;;;;;;17.38;90.35;150427.59;4903507;28;20706;-64
2023/09/15 09:23:44;;;;;;;7.40;4.50;;;;;;;17.41;88.76;150433.81;4907739;28;20278;-65
2023/09/15 09:26:13;;;;;;;10.40;4.53;;;;;;;17.47;88.62;150447.59;4904694;28;20238;-64
2023/09/15 09:28:41;;;;;;;7.00;4.70;;;;;;;17.66;89.26;150493.88;4910566;28;20236;-65
2023/09/15 09:31:09;;;;;;;9.77;4.60;;;;;;;17.63;88.84;150486.34;4902224;28;20738;-64
2023/09/15 09:33:36;;;;;;;6.63;4.23;;;;;;;17.74;89.15;150512.59;4909091;28;20231;-64
2023/09/15 09:36:10;;;;;;;7.30;4.70;;;;;;;17.92;86.69;150557.66;4906872;28;20583;-64
2023/09/15 09:38:37;;;;;;;8.80;4.73;;;;;;;17.93;87.63;150560.16;4910082;28;20243;-64
2023/09/15 09:41:04;;;;;;;8.93;4.70;;;;;;;17.98;86.37;150572.66;4908190;28;20229;-64
2023/09/15 09:43:31;;;;;;;9.70;4.63;;;;;;;18.17;86.68;150617.75;4912633;28;20240;-64
2023/09/15 09:45:59;;;;;;;7.63;4.90;;;;;;;18.28;86.91;150644.03;4904474;28;20244;-65
2023/09/15 09:48:26;;;;;;;7.67;4.03;;;;;;;18.40;84.48;150672.81;4914331;28;20236;-65
2023/09/15 09:50:57;;;;;;;5.00;4.03;;;;;;;18.50;85.05;150697.88;4912125;28;20307;-64
2023/09/15 09:53:28;;;;;;;6.60;4.30;;;;;;;18.54;84.34;150707.88;4914034;28;20295;-66
2023/09/15 09:55:57;;;;;;;7.77;4.30;;;;;;;18.64;83.81;150731.63;4910181;28;20248;-65
2023/09/15 09:58:24;;;;;;;7.40;4.00;;;;;;;18.80;83.87;150769.19;4908690;28;20236;-65
2023/09/15 10:00:59;;;;;;;8.20;4.90;;;;;;;18.86;82.96;150784.22;4907505;28;20319;-64
2023/09/15 10:03:26;;;;;;;7.90;3.73;;;;;;;18.86;83.28;150785.44;4908455;28;20239;-65
2023/09/15 10:05:57;;;;;;;5.97;4.30;;;;;;;18.80;82.30;150769.19;4909313;28;20236;-65
2023/09/15 10:08:24;;;;;;;7.60;4.10;;;;;;;18.95;82.40;150805.47;4912043;28;20315;-65
2023/09/15 10:10:58;;;;;;;6.90;4.27;;;;;;;19.03;82.93;150826.84;4908935;28;20236;-65
2023/09/15 10:13:26;;;;;;;7.40;3.93;;;;;;;19.14;83.50;150853.09;4908729;28;20236;-66
2023/09/15 10:15:59;;;;;;;4.40;3.60;;;;;;;19.25;82.79;150878.16;4907638;28;20236;-65
2023/09/15 10:18:26;;;;;;;12.90;4.03;;;;;;;19.35;81.65;150903.19;4907914;28;20243;-65
2023/09/15 10:20:58;;;;;;;8.40;4.10;;;;;;;19.22;82.75;150871.88;4906567;28;20235;-65
2023/09/15 10:23:25;;;;;;;7.20;4.43;;;;;;;19.25;81.44;150878.16;4908760;28;20261;-65
2023/09/15 10:25:57;;;;;;;6.47;3.80;;;;;;;19.22;81.72;150871.88;4906759;28;20231;-65
2023/09/15 10:28:25;;;;;;;7.30;3.93;;;;;;;19.33;82.06;150899.41;4915520;28;20570;-65
2023/09/15 10:30:59;;;;;;;5.72;3.85;;;;;;;19.51;81.24;150940.75;4904756;28;20469;-65
2023/09/15 10:33:26;;;;;;;6.50;3.70;;;;;;;19.50;81.97;150939.47;4910612;28;20223;-65
2023/09/15 10:36:03;;;;;;;11.23;4.00;;;;;;;19.70;80.34;150987.06;4902662;28;20275;-66
2023/09/15 10:38:31;;;;;;;7.57;4.03;;;;;;;19.77;81.25;151004.63;4913922;28;20236;-66
2023/09/15 10:41:01;;;;;;;9.10;3.93;;;;;;;19.92;78.29;151040.97;4925270;28;20238;-66
2023/09/15 10:43:28;;;;;;;7.67;3.53;;;;;;;19.88;79.21;151032.16;4910266;28;20321;-66
2023/09/15 10:46:02;;;;;;;7.63;3.90;;;;;;;20.06;78.84;151074.81;4904520;28;20246;-66
2023/09/15 10:48:38;;;;;;;5.73;3.93;;;;;;;20.13;78.11;151091.06;4909375;28;20289;-66
2023/09/15 10:51:09;;;;;;;9.70;3.80;;;;;;;20.22;77.24;151113.63;4911434;28;20240;-65
2023/09/15 10:53:43;;;;;;;5.00;3.10;;;;;;;20.35;78.74;151144.94;4906967;28;20237;-66
2023/09/15 10:56:10;;;;;;;7.43;3.53;;;;;;;20.49;77.14;151180.00;4891102;28;20294;-65
2023/09/15 10:58:37;;;;;;;5.57;3.80;;;;;;;20.45;76.73;151170.00;4914621;28;20240;-65
2023/09/15 11:01:06;;;;;;;6.23;3.73;;;;;;;20.68;77.68;151223.84;4903955;28;20301;-65
2023/09/15 11:03:33;;;;;;;9.30;4.30;;;;;;;20.92;76.12;151282.81;4903565;28;20323;-65
2023/09/15 11:06:02;;;;;;;6.77;3.60;;;;;;;21.01;75.01;151305.38;4902289;28;20236;-65
2023/09/15 11:08:31;;;;;;;10.57;4.03;;;;;;;20.93;74.77;151285.34;4915538;28;20240;-65
2023/09/15 11:10:59;;;;;;;10.47;3.80;;;;;;;20.92;75.46;151284.06;4907013;28;20258;-65
2023/09/15 11:13:25;;;;;;;7.67;4.03;;;;;;;20.99;75.01;151300.38;4909122;28;20238;-64
2023/09/15 11:15:57;;;;;;;5.40;3.30;;;;;;;21.24;75.17;151361.78;4914966;28;20286;-65
2023/09/15 11:18:27;;;;;;;5.87;3.60;;;;;;;21.26;74.97;151364.28;4909974;28;20235;-65
2023/09/15 11:20:58;;;;;;;7.63;4.13;;;;;;;21.06;75.33;151317.94;4907319;28;20707;-64
2023/09/15 11:23:25;;;;;;;10.23;4.30;;;;;;;21.15;75.19;151339.22;4915178;28;20244;-65
2023/09/15 11:26:01;;;;;;;7.93;4.47;;;;;;;21.28;75.48;151370.53;4906445;28;20281;-66
2023/09/15 11:28:28;;;;;;;5.80;4.33;;;;;;;21.32;75.81;151380.56;4910599;28;20238;-65
2023/09/15 11:30:58;;;;;;;6.40;4.30;;;;;;;21.46;74.96;151414.44;4911202;28;20326;-65
2023/09/15 11:33:26;;;;;;;6.00;3.83;;;;;;;21.63;73.97;151454.59;4905929;28;20245;-63